Time;durP1;ratioP1;P1;durP2;ratioP2;P2;SDS_P1;SDS_P2;PMS_P1;PMS_P2;Temp;Humidity;BMP_temperature;BMP_pressure;BME280_temperature;BME280_humidity;BME280_pressure;Samples;Min_cycle;Max_cycle;Signal;HPM_P1;HPM_P2
2022/05/18 00:00:48;;;;;;;4.43;3.28;;;17.50;99.90;;;;;;4938749;29;20099;-80
2022/05/18 00:03:16;;;;;;;4.55;3.45;;;17.50;99.90;;;;;;4926930;29;20024;-79
2022/05/18 00:05:42;;;;;;;5.68;3.33;;;17.50;99.90;;;;;;4914667;29;20543;-80
2022/05/18 00:08:09;;;;;;;7.57;3.28;;;17.50;99.90;;;;;;4919032;29;20031;-80
2022/05/18 00:10:37;;;;;;;6.20;3.97;;;17.40;99.90;;;;;;4919054;29;20040;-80
2022/05/18 00:13:04;;;;;;;5.78;3.47;;;17.30;99.90;;;;;;4916989;29;20034;-81
2022/05/18 00:15:30;;;;;;;4.68;3.30;;;17.20;99.90;;;;;;4926644;29;20035;-80
2022/05/18 00:17:57;;;;;;;5.57;3.70;;;17.10;99.90;;;;;;4931690;29;20119;-80
2022/05/18 00:20:23;;;;;;;4.28;3.20;;;17.10;99.90;;;;;;4911803;29;20059;-80
2022/05/18 00:22:52;;;;;;;4.10;3.58;;;17.20;99.90;;;;;;4932598;29;20059;-80
2022/05/18 00:25:20;;;;;;;4.85;3.22;;;17.10;99.90;;;;;;4916914;29;20122;-80
2022/05/18 00:27:47;;;;;;;7.80;3.53;;;17.00;99.90;;;;;;4913406;29;20039;-80
2022/05/18 00:30:15;;;;;;;6.68;4.10;;;17.00;99.90;;;;;;4936105;29;20084;-79
2022/05/18 00:32:41;;;;;;;3.72;3.30;;;17.00;99.90;;;;;;4945713;29;20040;-80
2022/05/18 00:35:07;;;;;;;5.43;3.33;;;17.00;99.90;;;;;;4934709;29;20095;-80
2022/05/18 00:37:33;;;;;;;4.90;3.53;;;16.80;99.90;;;;;;4932501;29;20033;-80
2022/05/18 00:39:58;;;;;;;3.78;3.33;;;16.80;99.90;;;;;;4917393;29;20028;-80
2022/05/18 00:42:26;;;;;;;3.95;3.15;;;16.80;99.90;;;;;;4936063;29;20026;-80
2022/05/18 00:44:52;;;;;;;6.13;3.78;;;16.70;99.90;;;;;;4909195;29;20032;-79
2022/05/18 00:47:20;;;;;;;4.47;3.60;;;16.70;99.90;;;;;;4918911;29;20046;-79
2022/05/18 00:49:49;;;;;;;4.20;3.38;;;16.60;99.90;;;;;;4926426;29;20032;-80
2022/05/18 00:52:20;;;;;;;5.10;3.80;;;16.60;99.90;;;;;;4919851;29;20032;-80
2022/05/18 00:54:46;;;;;;;3.72;3.33;;;16.50;99.90;;;;;;4932234;29;20059;-80
2022/05/18 00:57:19;;;;;;;8.18;4.05;;;16.50;99.90;;;;;;4920353;29;20055;-80
2022/05/18 01:00:20;;;;;;;4.75;3.65;;;16.40;99.90;;;;;;4924461;29;20062;-80
2022/05/18 01:02:52;;;;;;;6.18;4.22;;;16.40;99.90;;;;;;4924461;29;20059;-81
2022/05/18 01:05:23;;;;;;;5.45;3.40;;;16.30;99.90;;;;;;4930842;29;20060;-82
2022/05/18 01:07:51;;;;;;;5.22;3.33;;;16.30;99.90;;;;;;4937264;29;20028;-82
2022/05/18 01:10:17;;;;;;;9.75;4.00;;;16.30;99.90;;;;;;4937849;29;20032;-79
2022/05/18 01:12:44;;;;;;;5.18;3.45;;;16.20;99.90;;;;;;4949329;29;20095;-80
2022/05/18 01:15:13;;;;;;;6.97;4.60;;;16.20;99.90;;;;;;4936081;29;20040;-79
2022/05/18 01:17:41;;;;;;;9.23;3.83;;;16.20;99.90;;;;;;4942068;29;20020;-79
2022/05/18 01:20:10;;;;;;;5.40;4.03;;;16.20;99.90;;;;;;4944123;29;20127;-80
2022/05/18 01:23:09;;;;;;;5.18;4.03;;;16.20;99.90;;;;;;4933832;29;20090;-80
2022/05/18 01:25:54;;;;;;;5.68;3.47;;;16.30;99.90;;;;;;4919483;29;20028;-80
2022/05/18 01:28:23;;;;;;;6.43;4.22;;;16.40;99.90;;;;;;4916194;29;20060;-79
2022/05/18 01:30:48;;;;;;;6.07;3.65;;;16.40;99.90;;;;;;4923264;29;20403;-80
2022/05/18 01:33:17;;;;;;;5.05;3.80;;;16.30;99.90;;;;;;4919972;29;20083;-80
2022/05/18 01:35:44;;;;;;;5.55;3.70;;;16.20;99.90;;;;;;4915724;29;20027;-81
2022/05/18 01:38:13;;;;;;;7.78;3.75;;;16.20;99.90;;;;;;4919119;29;20492;-80
2022/05/18 01:40:48;;;;;;;8.38;4.47;;;16.10;99.90;;;;;;4920760;29;20027;-79
2022/05/18 01:43:37;;;;;;;5.75;4.95;;;16.00;99.90;;;;;;4941673;29;20058;-79
2022/05/18 01:46:06;;;;;;;5.32;4.70;;;16.00;99.90;;;;;;4918795;29;20043;-79
2022/05/18 01:48:34;;;;;;;5.20;4.03;;;15.90;99.90;;;;;;4914787;29;20490;-81
2022/05/18 01:51:02;;;;;;;5.15;4.63;;;16.00;99.90;;;;;;4926004;29;20032;-80
2022/05/18 01:53:30;;;;;;;3.60;3.30;;;16.20;99.90;;;;;;4930091;29;20023;-78
2022/05/18 01:55:56;;;;;;;4.18;3.50;;;16.20;99.90;;;;;;4932562;29;20039;-80
2022/05/18 01:58:22;;;;;;;4.47;4.03;;;16.10;99.90;;;;;;4934297;29;20020;-80
2022/05/18 02:00:49;;;;;;;6.97;4.55;;;16.00;99.90;;;;;;4933679;29;20491;-81
2022/05/18 02:03:16;;;;;;;7.00;4.50;;;15.90;99.90;;;;;;4917492;29;20431;-80
2022/05/18 02:05:42;;;;;;;6.18;3.90;;;15.90;99.90;;;;;;4901121;29;20048;-80
2022/05/18 02:08:10;;;;;;;6.40;4.07;;;15.90;99.90;;;;;;4893146;29;20513;-80
2022/05/18 02:10:36;;;;;;;6.18;3.95;;;15.80;99.90;;;;;;4890342;29;20428;-80
2022/05/18 02:13:02;;;;;;;5.55;4.15;;;15.70;99.90;;;;;;4894702;29;20064;-80
2022/05/18 02:15:28;;;;;;;6.90;5.28;;;15.60;99.90;;;;;;4894578;29;20041;-81
2022/05/18 02:17:54;;;;;;;6.15;3.95;;;15.60;99.90;;;;;;4895757;29;20053;-82
2022/05/18 02:20:21;;;;;;;4.97;4.22;;;15.60;99.90;;;;;;4892963;29;20093;-81
2022/05/18 02:22:47;;;;;;;6.15;4.55;;;15.60;99.90;;;;;;4900201;29;20021;-80
2022/05/18 02:25:13;;;;;;;6.05;4.45;;;15.50;99.90;;;;;;4893407;29;20092;-81
2022/05/18 02:27:39;;;;;;;6.35;4.80;;;15.50;99.90;;;;;;4902072;29;20028;-80
2022/05/18 02:30:07;;;;;;;7.05;4.20;;;15.60;99.90;;;;;;4892017;29;20120;-81
2022/05/18 02:32:33;;;;;;;6.60;4.47;;;15.60;99.90;;;;;;4891242;29;20035;-81
2022/05/18 02:34:58;;;;;;;5.65;3.88;;;15.50;99.90;;;;;;4886211;29;20029;-80
2022/05/18 02:37:24;;;;;;;6.70;4.18;;;15.50;99.90;;;;;;4890154;29;20040;-82
2022/05/18 02:39:50;;;;;;;8.70;4.22;;;15.50;99.90;;;;;;4888451;29;20081;-81
2022/05/18 02:42:16;;;;;;;10.07;4.47;;;15.70;99.90;;;;;;4893252;29;20028;-81
2022/05/18 02:44:41;;;;;;;4.22;3.80;;;15.80;99.90;;;;;;4896248;29;20107;-80
2022/05/18 02:47:07;;;;;;;12.93;6.05;;;15.80;99.90;;;;;;4890311;29;20036;-81
2022/05/18 02:49:33;;;;;;;4.57;3.65;;;15.70;99.90;;;;;;4892115;29;20096;-80
2022/05/18 02:51:59;;;;;;;6.25;3.83;;;15.60;99.90;;;;;;4895971;29;20028;-80
2022/05/18 02:57:09;;;;;;;4.88;3.67;;;15.70;99.90;;;;;;4891231;29;20031;-80
2022/05/18 02:59:35;;;;;;;9.93;4.50;;;15.60;99.90;;;;;;4892325;29;20021;-81
2022/05/18 03:02:01;;;;;;;8.55;4.10;;;15.60;99.90;;;;;;4889975;29;20044;-80
2022/05/18 03:04:29;;;;;;;8.50;4.45;;;15.50;99.90;;;;;;4892452;29;20040;-79
2022/05/18 03:06:55;;;;;;;5.13;3.55;;;15.40;99.90;;;;;;4929059;29;20134;-80
2022/05/18 03:09:21;;;;;;;5.15;4.50;;;15.30;99.90;;;;;;4922732;29;20554;-80
2022/05/18 03:11:46;;;;;;;8.73;5.15;;;15.20;99.90;;;;;;4923210;29;20024;-80
2022/05/18 03:14:12;;;;;;;9.27;5.05;;;15.20;99.90;;;;;;4929455;29;20113;-79
2022/05/18 03:16:39;;;;;;;6.22;4.43;;;15.10;99.90;;;;;;4921753;29;20070;-81
2022/05/18 03:19:05;;;;;;;6.63;5.75;;;15.10;99.90;;;;;;4912118;29;20107;-79
2022/05/18 03:24:14;;;;;;;6.28;5.05;;;15.10;99.90;;;;;;4931945;29;20046;-80
2022/05/18 03:26:40;;;;;;;5.57;4.97;;;15.10;99.90;;;;;;4931292;29;20032;-80
2022/05/18 03:29:06;;;;;;;6.18;4.18;;;15.00;99.90;;;;;;4923383;29;20032;-81
2022/05/18 03:31:31;;;;;;;7.53;4.22;;;15.00;99.90;;;;;;4917870;29;20024;-80
2022/05/18 03:34:00;;;;;;;6.47;4.97;;;15.00;99.90;;;;;;4928897;29;20154;-79
2022/05/18 03:36:26;;;;;;;6.65;4.80;;;15.00;99.90;;;;;;4929189;29;20031;-79
2022/05/18 03:38:54;;;;;;;6.20;4.47;;;15.00;99.90;;;;;;4935760;29;20023;-81
2022/05/18 03:41:20;;;;;;;9.43;4.50;;;15.00;99.90;;;;;;4930564;29;20011;-80
2022/05/18 03:43:46;;;;;;;6.95;4.80;;;15.10;99.90;;;;;;4934004;29;20028;-80
2022/05/18 03:46:13;;;;;;;7.90;4.95;;;15.10;99.90;;;;;;4913884;29;20488;-81
2022/05/18 03:48:39;;;;;;;9.50;5.00;;;15.10;99.90;;;;;;4921063;29;20123;-80
2022/05/18 03:51:07;;;;;;;6.45;4.55;;;15.00;99.90;;;;;;4926082;29;20039;-80
2022/05/18 03:53:34;;;;;;;8.65;4.40;;;15.10;99.90;;;;;;4921832;29;20103;-79
2022/05/18 03:55:59;;;;;;;6.72;4.88;;;15.10;99.90;;;;;;4920707;29;20028;-79
2022/05/18 03:58:25;;;;;;;7.80;4.95;;;15.10;99.90;;;;;;4916005;29;20035;-80
2022/05/18 04:00:54;;;;;;;5.13;4.63;;;15.10;99.90;;;;;;4926026;29;20028;-79
2022/05/18 04:03:21;;;;;;;6.90;5.30;;;15.10;99.90;;;;;;4955250;29;20028;-80
2022/05/18 04:05:50;;;;;;;8.95;5.60;;;15.20;99.90;;;;;;4940987;29;20048;-80
2022/05/18 04:08:16;;;;;;;7.45;5.38;;;15.40;99.90;;;;;;4920378;29;20051;-80
2022/05/18 04:10:43;;;;;;;8.90;5.47;;;15.60;99.90;;;;;;4924245;29;20027;-80
2022/05/18 04:13:13;;;;;;;9.05;4.65;;;15.80;99.90;;;;;;4937234;29;20032;-79
2022/05/18 04:15:40;;;;;;;15.02;5.38;;;15.90;99.90;;;;;;4939823;28;20035;-80
2022/05/18 04:18:06;;;;;;;9.60;4.47;;;15.80;99.90;;;;;;4916812;29;20503;-80
2022/05/18 04:20:31;;;;;;;8.23;5.18;;;16.10;99.90;;;;;;4919815;29;20055;-81
2022/05/18 04:22:57;;;;;;;7.47;4.90;;;16.30;99.90;;;;;;4916894;29;20038;-80
2022/05/18 04:25:25;;;;;;;11.68;5.28;;;16.40;99.90;;;;;;4945980;28;20028;-80
2022/05/18 04:27:51;;;;;;;9.50;5.10;;;16.60;99.90;;;;;;4925834;29;20036;-80
2022/05/18 04:30:19;;;;;;;10.30;5.78;;;17.20;99.90;;;;;;4921983;29;20724;-80
2022/05/18 04:32:45;;;;;;;9.18;5.65;;;17.80;99.90;;;;;;4936114;29;20032;-80
2022/05/18 04:35:14;;;;;;;13.63;5.80;;;18.10;99.90;;;;;;4921427;29;20511;-79
2022/05/18 04:37:39;;;;;;;8.73;5.45;;;17.90;99.90;;;;;;4922822;29;20028;-81
2022/05/18 04:40:06;;;;;;;13.52;6.05;;;17.90;99.90;;;;;;4939110;29;20083;-80
2022/05/18 04:42:32;;;;;;;7.72;6.07;;;18.10;99.90;;;;;;4923307;29;20036;-81
2022/05/18 04:44:58;;;;;;;9.98;6.15;;;18.50;99.90;;;;;;4923006;29;20108;-80
2022/05/18 04:47:24;;;;;;;8.18;5.80;;;18.50;99.90;;;;;;4936715;29;20510;-81
2022/05/18 04:49:53;;;;;;;12.05;5.18;;;18.50;99.90;;;;;;4931005;29;20492;-79
2022/05/18 04:52:20;;;;;;;9.23;4.80;;;18.80;99.90;;;;;;4926504;29;20031;-80
2022/05/18 04:54:46;;;;;;;8.73;4.75;;;19.20;99.90;;;;;;4922658;29;20028;-80
2022/05/18 04:57:13;;;;;;;11.45;5.68;;;20.10;99.90;;;;;;4937667;29;20036;-79
2022/05/18 04:59:39;;;;;;;7.78;5.85;;;20.90;99.90;;;;;;4922545;29;20032;-80
2022/05/18 05:02:05;;;;;;;9.95;4.50;;;21.40;99.90;;;;;;4920971;29;20035;-82
2022/05/18 05:04:32;;;;;;;10.23;4.75;;;21.90;99.90;;;;;;4922807;29;20565;-80
2022/05/18 05:06:57;;;;;;;8.00;5.07;;;22.10;99.90;;;;;;4903884;29;20495;-80
2022/05/18 05:09:24;;;;;;;9.23;4.82;;;21.80;99.90;;;;;;4901332;29;20036;-80
2022/05/18 05:11:51;;;;;;;7.97;4.78;;;22.30;99.90;;;;;;4900002;29;20260;-80
2022/05/18 05:14:16;;;;;;;11.07;5.20;;;23.10;99.90;;;;;;4895976;29;20033;-81
2022/05/18 05:16:42;;;;;;;7.80;4.97;;;23.70;99.60;;;;;;4901643;29;20165;-80
2022/05/18 05:19:08;;;;;;;7.47;4.57;;;23.40;99.00;;;;;;4899422;29;20020;-80
2022/05/18 05:21:35;;;;;;;8.88;4.70;;;23.60;98.50;;;;;;4901386;29;20028;-80
2022/05/18 05:24:02;;;;;;;6.82;3.80;;;23.70;98.20;;;;;;4900447;29;20111;-80
2022/05/18 05:26:28;;;;;;;5.35;4.00;;;23.50;98.80;;;;;;4903124;29;20032;-80
2022/05/18 05:28:53;;;;;;;6.85;4.43;;;23.80;97.90;;;;;;4903809;29;20020;-80
2022/05/18 05:31:19;;;;;;;5.75;3.58;;;23.00;98.80;;;;;;4901743;29;20028;-81
2022/05/18 05:33:45;;;;;;;7.47;3.67;;;22.60;99.10;;;;;;4902091;29;20093;-82
2022/05/18 05:36:10;;;;;;;7.32;4.00;;;22.80;99.10;;;;;;4901164;29;20083;-81
2022/05/18 05:38:36;;;;;;;6.30;3.67;;;23.40;98.60;;;;;;4902540;29;20039;-82
2022/05/18 05:41:01;;;;;;;9.45;4.68;;;24.20;97.20;;;;;;4912939;29;20036;-81
2022/05/18 05:43:28;;;;;;;7.18;3.78;;;24.40;96.60;;;;;;4904611;29;20024;-80
2022/05/18 05:46:00;;;;;;;6.85;3.65;;;23.80;97.30;;;;;;4903467;29;20029;-81
2022/05/18 05:48:26;;;;;;;7.57;4.07;;;24.00;96.90;;;;;;4895784;29;20029;-81
2022/05/18 05:50:52;;;;;;;5.32;3.97;;;25.30;95.50;;;;;;4899281;29;20021;-81
2022/05/18 05:53:18;;;;;;;9.57;4.57;;;25.50;95.10;;;;;;4903109;29;20048;-81
2022/05/18 05:55:43;;;;;;;10.98;4.15;;;24.60;95.80;;;;;;4903938;29;20059;-81
2022/05/18 05:58:09;;;;;;;8.07;4.93;;;24.20;96.10;;;;;;4904147;29;20637;-81
2022/05/18 06:00:34;;;;;;;7.88;4.57;;;23.90;96.10;;;;;;4901620;29;20033;-80
2022/05/18 06:03:00;;;;;;;9.00;4.70;;;23.70;96.80;;;;;;4903735;29;20100;-81
2022/05/18 06:05:25;;;;;;;11.10;4.90;;;24.60;95.30;;;;;;4900759;29;20521;-81
2022/05/18 06:07:51;;;;;;;5.78;4.10;;;25.20;94.80;;;;;;4903857;29;20036;-81
2022/05/18 06:10:17;;;;;;;7.38;4.25;;;25.40;94.40;;;;;;4903591;29;20036;-81
2022/05/18 06:12:42;;;;;;;8.57;5.15;;;25.60;93.80;;;;;;4898679;29;20037;-81
2022/05/18 06:15:09;;;;;;;8.43;4.90;;;24.80;94.50;;;;;;4902326;29;20039;-81
2022/05/18 06:17:34;;;;;;;8.30;4.60;;;24.20;95.20;;;;;;4907166;29;20029;-81
2022/05/18 06:20:00;;;;;;;7.85;4.00;;;23.70;96.00;;;;;;4905189;29;20033;-81
2022/05/18 06:22:31;;;;;;;15.32;4.25;;;23.40;96.30;;;;;;4906689;29;20048;-82
2022/05/18 06:24:57;;;;;;;10.07;3.55;;;23.20;96.70;;;;;;4902853;29;20059;-81
2022/05/18 06:27:23;;;;;;;6.80;4.20;;;22.50;97.40;;;;;;4902879;29;20485;-80
2022/05/18 06:29:49;;;;;;;5.15;3.63;;;22.40;97.70;;;;;;4907067;29;20032;-80
2022/05/18 06:32:16;;;;;;;6.70;3.72;;;22.30;98.20;;;;;;4904505;29;20481;-81
2022/05/18 06:34:44;;;;;;;5.57;3.72;;;22.20;98.30;;;;;;4901548;29;20029;-80
2022/05/18 06:37:11;;;;;;;6.40;3.97;;;22.00;98.50;;;;;;4903770;29;20021;-81
2022/05/18 06:39:37;;;;;;;6.30;4.05;;;21.80;99.00;;;;;;4901563;29;20036;-81
2022/05/18 06:42:02;;;;;;;5.60;4.00;;;21.70;99.50;;;;;;4902175;29;20021;-81
2022/05/18 06:44:28;;;;;;;7.18;3.78;;;21.90;99.20;;;;;;4895506;29;20033;-79
2022/05/18 06:46:57;;;;;;;9.27;4.03;;;22.10;98.90;;;;;;4898980;29;20040;-80
2022/05/18 06:49:23;;;;;;;5.38;3.75;;;22.20;98.80;;;;;;4890907;29;20028;-80
2022/05/18 06:51:48;;;;;;;9.30;4.40;;;22.10;99.00;;;;;;4902551;29;20036;-81
2022/05/18 06:54:15;;;;;;;8.25;4.25;;;22.10;98.70;;;;;;4896177;29;20028;-81
2022/05/18 06:56:42;;;;;;;6.90;4.13;;;22.10;99.00;;;;;;4899129;29;20096;-81
2022/05/18 06:59:10;;;;;;;7.45;4.45;;;22.30;98.50;;;;;;4901781;29;20024;-81
2022/05/18 07:01:36;;;;;;;5.88;3.80;;;22.40;98.70;;;;;;4900400;29;20035;-81
2022/05/18 07:04:03;;;;;;;7.40;4.40;;;22.50;98.80;;;;;;4904110;29;20112;-80
2022/05/18 07:06:34;;;;;;;6.18;4.05;;;22.60;98.50;;;;;;4901538;29;20083;-80
2022/05/18 07:09:00;;;;;;;6.90;3.53;;;22.60;98.60;;;;;;4902382;29;20032;-81
2022/05/18 07:11:27;;;;;;;7.22;3.65;;;22.60;98.40;;;;;;4900703;29;20054;-81
2022/05/18 07:13:55;;;;;;;9.10;3.75;;;22.50;98.40;;;;;;4900795;29;20032;-81
2022/05/18 07:16:23;;;;;;;8.02;3.28;;;22.50;98.30;;;;;;4902319;29;20057;-81
2022/05/18 07:18:49;;;;;;;7.32;3.85;;;22.70;98.20;;;;;;4895720;29;20032;-81
2022/05/18 07:21:16;;;;;;;6.20;3.50;;;22.70;98.00;;;;;;4893648;29;20484;-80
2022/05/18 07:23:41;;;;;;;22.33;4.13;;;22.80;98.00;;;;;;4891970;29;20494;-81
2022/05/18 07:26:08;;;;;;;5.65;3.33;;;22.90;97.90;;;;;;4894352;29;20032;-80
2022/05/18 07:28:34;;;;;;;3.65;3.30;;;22.90;97.70;;;;;;4898710;29;20268;-80
2022/05/18 07:30:59;;;;;;;6.05;3.28;;;22.90;97.80;;;;;;4889122;29;20133;-80
2022/05/18 07:33:26;;;;;;;4.80;3.05;;;22.90;97.40;;;;;;4900274;29;20429;-80
2022/05/18 07:35:54;;;;;;;4.35;3.13;;;23.00;97.20;;;;;;4899960;29;20032;-80
2022/05/18 07:38:25;;;;;;;7.65;3.40;;;23.00;97.00;;;;;;4890341;29;20020;-80
2022/05/18 07:40:50;;;;;;;5.50;2.70;;;23.00;97.30;;;;;;4900906;29;20084;-80
2022/05/18 07:43:20;;;;;;;5.03;2.92;;;23.10;97.20;;;;;;4895387;29;20025;-81
2022/05/18 07:45:47;;;;;;;4.55;2.53;;;23.30;97.10;;;;;;4902988;29;20523;-79
2022/05/18 07:48:13;;;;;;;8.73;2.38;;;23.50;96.30;;;;;;4896071;29;20407;-80
2022/05/18 07:50:38;;;;;;;6.70;2.80;;;23.30;96.90;;;;;;4899329;29;20036;-79
2022/05/18 07:53:04;;;;;;;5.03;2.78;;;23.70;96.30;;;;;;4893268;29;20088;-79
2022/05/18 07:55:30;;;;;;;5.60;2.42;;;23.70;95.90;;;;;;4906573;29;20451;-80
2022/05/18 07:57:56;;;;;;;5.50;2.47;;;23.80;95.90;;;;;;4892066;29;20049;-80
2022/05/18 08:00:23;;;;;;;5.88;2.70;;;23.80;96.10;;;;;;4901491;29;20164;-80
2022/05/18 08:02:49;;;;;;;5.63;3.13;;;23.80;95.70;;;;;;4905197;29;20028;-81
2022/05/18 08:05:15;;;;;;;6.38;2.78;;;23.80;95.20;;;;;;4904404;29;20036;-80
2022/05/18 08:07:45;;;;;;;6.55;2.80;;;23.80;95.10;;;;;;4922276;29;20082;-80
2022/05/18 08:15:48;;;;;;;4.20;2.75;;;24.00;94.60;;;;;;4940579;29;20043;-81
2022/05/18 08:18:15;;;;;;;8.18;2.42;;;24.00;94.60;;;;;;4931926;29;20029;-80
2022/05/18 08:20:41;;;;;;;4.03;2.75;;;24.20;94.30;;;;;;4938436;29;20550;-80
2022/05/18 08:23:07;;;;;;;5.43;2.58;;;24.30;94.30;;;;;;4941183;29;20038;-80
2022/05/18 08:25:34;;;;;;;2.63;2.05;;;24.40;94.10;;;;;;4922195;29;20035;-80
2022/05/18 08:27:59;;;;;;;4.32;2.03;;;24.40;94.40;;;;;;4923790;29;20075;-81
2022/05/18 08:30:25;;;;;;;4.50;2.00;;;24.50;94.40;;;;;;4935739;29;20394;-80
2022/05/18 08:32:50;;;;;;;4.35;2.30;;;24.60;93.90;;;;;;4912345;29;20034;-80
2022/05/18 08:35:17;;;;;;;5.50;2.50;;;24.70;93.50;;;;;;4939536;29;20119;-79
2022/05/18 08:37:48;;;;;;;5.50;2.28;;;24.90;93.40;;;;;;4924525;29;20133;-80
2022/05/18 08:40:29;;;;;;;4.18;2.35;;;24.90;93.40;;;;;;4922632;29;20020;-80
2022/05/18 08:43:03;;;;;;;4.43;2.45;;;25.00;93.60;;;;;;4922964;29;20028;-80
2022/05/18 08:45:36;;;;;;;4.13;2.40;;;25.00;93.30;;;;;;4929311;29;20032;-80
2022/05/18 08:48:26;;;;;;;3.72;2.58;;;24.80;93.30;;;;;;4938284;29;20079;-80
2022/05/18 08:50:52;;;;;;;3.05;2.00;;;25.10;93.30;;;;;;4936756;29;20050;-80
2022/05/18 08:53:27;;;;;;;2.58;2.20;;;25.20;93.10;;;;;;4924660;29;20056;-81
2022/05/18 08:55:53;;;;;;;4.40;2.80;;;25.50;93.00;;;;;;4928727;29;20535;-79
2022/05/18 08:58:48;;;;;;;7.18;2.90;;;25.60;92.70;;;;;;4941067;29;20050;-79
2022/05/18 09:01:17;;;;;;;6.32;2.40;;;25.90;92.10;;;;;;4931781;29;20407;-81
2022/05/18 09:04:20;;;;;;;16.63;2.70;;;25.90;92.10;;;;;;4926178;29;20031;-83
2022/05/18 09:06:54;;;;;;;5.80;2.40;;;25.80;92.10;;;;;;4863138;29;20057;-81
2022/05/18 09:12:17;;;;;;;4.45;2.50;;;26.30;91.40;;;;;;4932132;29;20042;-80
2022/05/18 09:14:44;;;;;;;5.55;2.05;;;26.10;91.30;;;;;;4939137;29;20044;-80
2022/05/18 09:17:26;;;;;;;3.47;2.00;;;25.90;91.30;;;;;;4921614;29;20485;-81
2022/05/18 09:20:03;;;;;;;4.40;2.10;;;25.90;91.10;;;;;;4916109;29;20065;-81
2022/05/18 09:22:43;;;;;;;3.70;2.50;;;26.00;91.20;;;;;;4932188;29;20118;-80
2022/05/18 09:25:22;;;;;;;4.57;2.53;;;26.20;91.00;;;;;;4924463;29;20034;-79
2022/05/18 09:28:33;;;;;;;4.72;2.30;;;26.10;90.70;;;;;;4935496;29;20110;-79
2022/05/18 09:31:36;;;;;;;3.83;2.13;;;26.20;90.40;;;;;;4951242;29;20523;-80
2022/05/18 09:34:19;;;;;;;4.03;2.15;;;25.80;90.10;;;;;;4932086;29;20403;-81
2022/05/18 09:37:02;;;;;;;4.03;1.50;;;26.00;90.10;;;;;;4914607;29;20032;-80
2022/05/18 09:39:34;;;;;;;3.05;1.48;;;26.40;86.40;;;;;;4914785;29;20058;-79
2022/05/18 09:42:07;;;;;;;4.18;1.98;;;26.60;87.10;;;;;;4937026;29;20031;-79
2022/05/18 09:44:53;;;;;;;5.90;2.13;;;26.60;88.50;;;;;;4927473;29;20087;-80
2022/05/18 09:47:21;;;;;;;3.13;1.85;;;26.80;87.00;;;;;;4938049;29;20032;-81
2022/05/18 09:49:51;;;;;;;3.17;1.92;;;26.90;87.30;;;;;;4935954;29;20107;-81
2022/05/18 09:52:20;;;;;;;2.67;1.85;;;27.00;87.00;;;;;;4922090;29;20033;-80
2022/05/18 09:54:46;;;;;;;3.42;1.85;;;27.10;86.30;;;;;;4928674;29;20396;-80
2022/05/18 09:57:20;;;;;;;4.13;1.63;;;27.00;87.00;;;;;;4916855;29;20024;-80
2022/05/18 09:59:53;;;;;;;3.10;1.48;;;27.10;86.90;;;;;;4923213;29;20559;-80
2022/05/18 10:07:54;;;;;;;4.60;1.52;;;27.10;84.40;;;;;;4930859;29;20043;-80
2022/05/18 10:10:19;;;;;;;4.35;2.03;;;27.30;82.70;;;;;;4924076;29;20019;-80
2022/05/18 10:13:00;;;;;;;1.50;1.23;;;27.30;82.40;;;;;;4882782;29;20037;-80
2022/05/18 10:15:25;;;;;;;3.53;1.65;;;27.40;82.10;;;;;;4876082;29;20058;-79
2022/05/18 10:18:27;;;;;;;1.63;1.40;;;27.20;81.90;;;;;;4888596;29;20036;-79
2022/05/18 10:21:13;;;;;;;2.85;1.65;;;27.10;82.10;;;;;;4870996;29;20077;-81
2022/05/18 10:23:45;;;;;;;2.25;1.60;;;27.60;83.00;;;;;;4872949;29;20035;-80
2022/05/18 10:26:28;;;;;;;3.75;1.90;;;27.80;82.90;;;;;;4881603;29;20494;-79
2022/05/18 10:28:57;;;;;;;3.63;1.73;;;27.70;82.40;;;;;;4876536;29;20033;-81
2022/05/18 10:31:46;;;;;;;4.60;1.90;;;28.10;80.30;;;;;;4877387;29;20081;-80
2022/05/18 10:34:25;;;;;;;3.53;1.38;;;27.90;80.40;;;;;;4881410;29;20398;-80
2022/05/18 10:36:54;;;;;;;3.83;1.75;;;28.00;80.60;;;;;;4877448;29;20033;-80
2022/05/18 10:39:36;;;;;;;3.35;1.60;;;27.80;81.00;;;;;;4881110;29;20025;-82
2022/05/18 10:42:15;;;;;;;1.88;1.30;;;27.80;82.10;;;;;;4884214;29;20035;-81
2022/05/18 10:44:42;;;;;;;4.78;1.60;;;27.90;81.10;;;;;;4879173;29;20493;-80
2022/05/18 10:47:24;;;;;;;1.17;1.08;;;28.10;81.20;;;;;;4879733;29;20046;-80
2022/05/18 10:49:50;;;;;;;1.63;1.33;;;28.40;78.50;;;;;;4878441;29;20084;-80
2022/05/18 10:52:20;;;;;;;2.35;1.92;;;28.50;77.50;;;;;;4894906;29;20029;-80
2022/05/18 10:54:58;;;;;;;2.28;1.20;;;28.50;78.00;;;;;;4874789;29;20109;-80
2022/05/18 10:57:35;;;;;;;2.22;1.75;;;27.90;78.10;;;;;;4878534;29;20048;-80
2022/05/18 11:00:15;;;;;;;2.58;1.60;;;28.00;77.80;;;;;;4883087;29;20029;-80
2022/05/18 11:03:07;;;;;;;2.50;1.23;;;28.20;77.00;;;;;;4883730;29;20036;-81
2022/05/18 11:05:43;;;;;;;3.00;1.30;;;28.20;77.20;;;;;;4882271;29;20037;-80
2022/05/18 11:08:14;;;;;;;2.58;1.63;;;28.60;75.20;;;;;;4878585;29;20035;-79
2022/05/18 11:10:53;;;;;;;2.33;1.20;;;28.50;75.30;;;;;;4894125;29;20033;-79
2022/05/18 11:13:38;;;;;;;2.75;1.58;;;28.30;75.50;;;;;;4887025;29;20042;-80
2022/05/18 11:16:22;;;;;;;6.65;1.50;;;28.20;75.10;;;;;;4893278;29;20041;-80
2022/05/18 11:18:50;;;;;;;2.17;1.45;;;28.20;71.60;;;;;;4882073;29;20060;-80
2022/05/18 11:21:19;;;;;;;2.28;0.98;;;28.20;73.30;;;;;;4881800;29;20027;-81
2022/05/18 11:23:44;;;;;;;1.75;0.88;;;28.30;71.90;;;;;;4881189;29;20054;-79
2022/05/18 11:26:30;;;;;;;2.60;1.00;;;28.50;72.00;;;;;;4893906;29;20033;-81
2022/05/18 11:29:07;;;;;;;7.30;1.67;;;28.50;70.50;;;;;;4899920;29;20033;-79
2022/05/18 11:32:03;;;;;;;2.17;1.30;;;28.60;72.00;;;;;;4878970;29;20036;-80
2022/05/18 11:35:06;;;;;;;2.50;1.40;;;28.50;73.10;;;;;;4873505;29;20481;-80
2022/05/18 11:37:43;;;;;;;1.45;1.23;;;28.70;73.20;;;;;;4887996;29;20025;-80
2022/05/18 11:40:30;;;;;;;5.75;1.10;;;28.70;72.60;;;;;;4893423;29;20194;-80
2022/05/18 11:43:25;;;;;;;1.52;1.10;;;28.50;71.60;;;;;;4895986;29;20034;-79
2022/05/18 11:46:04;;;;;;;1.92;1.20;;;28.50;72.60;;;;;;4882314;29;20037;-80
2022/05/18 11:48:54;;;;;;;4.00;1.48;;;28.60;73.70;;;;;;4900789;29;20036;-80
2022/05/18 11:51:42;;;;;;;1.83;1.20;;;28.60;74.30;;;;;;4884590;29;20033;-80
2022/05/18 11:54:25;;;;;;;2.38;1.55;;;28.60;72.90;;;;;;4892496;29;20037;-80
2022/05/18 11:57:04;;;;;;;2.08;1.50;;;28.60;73.20;;;;;;4878717;29;20108;-80
2022/05/18 11:59:58;;;;;;;1.75;1.30;;;28.70;73.10;;;;;;4880387;29;20026;-79
2022/05/18 12:02:45;;;;;;;2.42;1.17;;;28.60;73.10;;;;;;4895745;29;20056;-81
2022/05/18 12:05:24;;;;;;;2.53;0.88;;;28.80;71.50;;;;;;4895963;29;20040;-80
2022/05/18 12:08:25;;;;;;;1.85;1.10;;;28.80;69.30;;;;;;4894968;29;20145;-80
2022/05/18 12:11:09;;;;;;;;;;;28.70;69.80;;;;;;4879140;29;20640;-80
2022/05/18 12:13:49;;;;;;;1.25;1.10;;;29.00;69.30;;;;;;4878014;29;19962;-80
2022/05/18 12:16:26;;;;;;;;;;;29.10;68.10;;;;;;4887648;29;20052;-80
2022/05/18 12:19:22;;;;;;;4.13;1.50;;;29.00;69.30;;;;;;4887245;29;19915;-80
2022/05/18 12:21:58;;;;;;;2.40;1.17;;;29.00;69.60;;;;;;4892096;29;20029;-81
2022/05/18 12:24:24;;;;;;;2.72;1.30;;;29.00;70.30;;;;;;4881229;29;20021;-80
2022/05/18 12:26:51;;;;;;;4.05;1.90;;;28.70;71.40;;;;;;4880627;29;20029;-79
2022/05/18 12:29:22;;;;;;;2.22;1.40;;;28.70;72.40;;;;;;4880313;29;20057;-80
2022/05/18 12:31:48;;;;;;;;;;;28.40;71.50;;;;;;4882286;29;20044;-80
2022/05/18 12:34:14;;;;;;;1.92;1.40;;;28.40;72.90;;;;;;4878908;29;19912;-80
2022/05/18 12:36:50;;;;;;;3.95;1.60;;;28.50;71.70;;;;;;4897686;29;20036;-80
2022/05/18 12:39:45;;;;;;;2.92;1.65;;;28.40;71.80;;;;;;4892364;29;20513;-80
2022/05/18 12:42:27;;;;;;;2.22;1.27;;;28.50;71.40;;;;;;4872337;29;20057;-80
2022/05/18 12:45:03;;;;;;;3.03;1.38;;;28.50;72.50;;;;;;4886657;29;20025;-80
2022/05/18 12:47:41;;;;;;;3.03;1.27;;;28.80;72.20;;;;;;4885394;29;20043;-80
2022/05/18 12:50:17;;;;;;;2.00;1.00;;;29.00;70.70;;;;;;4884360;29;20064;-80
2022/05/18 12:52:59;;;;;;;2.15;1.33;;;28.90;69.90;;;;;;4884386;29;20033;-79
2022/05/18 12:55:30;;;;;;;1.95;1.30;;;29.00;69.90;;;;;;4880344;29;20029;-79
2022/05/18 12:58:11;;;;;;;1.92;1.30;;;28.70;71.20;;;;;;4883082;29;20056;-79
2022/05/18 13:00:45;;;;;;;2.05;1.40;;;28.90;69.70;;;;;;4898455;29;20073;-80
2022/05/18 13:03:11;;;;;;;2.60;1.10;;;29.00;69.10;;;;;;4882074;29;20067;-80
2022/05/18 13:05:43;;;;;;;1.88;1.30;;;29.20;68.10;;;;;;4881322;29;20044;-80
2022/05/18 13:08:17;;;;;;;2.05;1.33;;;29.10;68.60;;;;;;4884470;29;20029;-80
2022/05/18 13:11:10;;;;;;;3.60;1.35;;;28.60;70.30;;;;;;4880725;29;20111;-80
2022/05/18 13:13:55;;;;;;;2.75;1.60;;;28.70;71.20;;;;;;4886403;29;20061;-81
2022/05/18 13:16:38;;;;;;;1.77;1.40;;;28.90;70.00;;;;;;4888931;29;20040;-81
2022/05/18 13:19:13;;;;;;;1.63;1.30;;;29.00;70.00;;;;;;4888094;29;20120;-80
2022/05/18 13:22:17;;;;;;;2.83;1.42;;;29.10;70.00;;;;;;4892757;29;20036;-81
2022/05/18 13:24:55;;;;;;;1.67;1.58;;;29.40;69.80;;;;;;4884814;29;20161;-81
2022/05/18 13:27:50;;;;;;;2.30;1.05;;;29.40;69.50;;;;;;4885254;29;20040;-81